Flight Track Log - Related Links

Times and Time Zones

All times are in EDT time to prevent confusion due to time zone crossing. See the AAY615 flight status page for this flight to view local times or setup timezone preferences in your user account.

Time Position Orientation Groundspeed Altitude Reporting Facility
EDT Latitude Longitude Course Direction KTS MPH feet Rate Location/Type
Fri 05:57:00 PM 39.8083 -82.9364 155° Southeast 168 193 1,100  Level Indianapolis Center
Fri 05:58:01 PM 39.7617 -82.9086 155° Southeast 280 322 3,100 1,902 Climbing Indianapolis Center
Fri 05:59:03 PM 39.7692 -82.8097 84° East 272 313 5,000 2,419 Climbing Indianapolis Center
Fri 06:00:05 PM 39.7597 -82.6983 96° East 309 356 8,100 2,565 Climbing Indianapolis Center
Fri 06:01:07 PM 39.7514 -82.5869 96° East 308 354 10,300 1,659 Climbing Indianapolis Center
Fri 06:02:08 PM 39.6717 -82.5150 145° Southeast 353 406 11,500 1,512 Climbing Indianapolis Center
Fri 06:03:10 PM 39.5661 -82.4578 157° South 399 459 13,400 2,129 Climbing Indianapolis Center
Fri 06:04:12 PM 39.4539 -82.4111 162° South 416 479 15,900 2,780 Climbing Indianapolis Center
Fri 06:05:13 PM 39.3439 -82.4358 190° South 410 472 19,100 2,098 Climbing Indianapolis Center
Fri 06:06:15 PM 39.2344 -82.4842 199° South 399 459 20,200 1,452 Climbing Indianapolis Center
Fri 06:07:17 PM 39.1103 -82.5469 201° Southwest 412 474 22,100 1,610 Climbing Indianapolis Center
Fri 06:08:18 PM 38.9958 -82.5992 200° South 430 495 23,500 1,756 Climbing Indianapolis Center
Fri 06:09:20 PM 38.8786 -82.6483 198° South 442 509 25,700 1,790 Climbing Indianapolis Center
Fri 06:10:22 PM 38.7647 -82.6942 197° South 432 497 27,200 1,366 Climbing Indianapolis Center
Fri 06:11:23 PM 38.6431 -82.7472 199° South 437 503 28,500 1,317 Climbing Indianapolis Center
Fri 06:12:25 PM 38.5294 -82.8006 200° South 434 499 29,900 1,403 Climbing Indianapolis Center
Fri 06:13:27 PM 38.4172 -82.8511 199° South 427 491 31,400 1,024 Climbing Indianapolis Center
Fri 06:14:28 PM 38.3069 -82.8964 198° South 418 481 32,000 293 Climbing Indianapolis Center
Fri 06:15:30 PM 38.1747 -82.9492 197° South 425 489 32,000  Level Indianapolis Center
Fri 06:16:32 PM 38.0642 -82.9997 200° South 422 486 32,000  Level Indianapolis Center
Fri 06:17:33 PM 37.9536 -83.0489 199° South 420 483 32,000  Level Indianapolis Center
Fri 06:18:35 PM 37.8425 -83.0961 199° South 421 484 32,000  Level Indianapolis Center
Fri 06:19:37 PM 37.7267 -83.1431 198° South 434 499 32,000  Level Indianapolis Center
Fri 06:20:38 PM 37.6142 -83.1897 198° South 427 491 32,000  Level Indianapolis Center
Fri 06:21:40 PM 37.4842 -83.2467 199° South 425 489 32,000  Level Indianapolis Center
Fri 06:22:42 PM 37.3703 -83.2950 199° South 429 494 32,000  Level Indianapolis Center
Fri 06:23:44 PM 37.2561 -83.3417 198° South 432 497 32,000  Level Indianapolis Center
Fri 06:24:45 PM 37.1417 -83.3881 198° South 432 497 32,000  Level Indianapolis Center
Fri 06:25:47 PM 37.0275 -83.4356 198° South 434 499 32,000  Level Indianapolis Center
Fri 06:26:49 PM 36.8933 -83.4922 199° South 438 504 32,000  Level Indianapolis Center
Fri 06:27:51 PM 36.7769 -83.5406 198° South 440 506 32,000  Level Indianapolis Center
Fri 06:28:52 PM 36.6617 -83.5872 198° South 438 504 32,000  Level Indianapolis Center
Fri 06:29:54 PM 36.5453 -83.6353 198° South 440 506 32,000  Level Indianapolis Center
Fri 06:30:56 PM 36.4214 -83.6867 198° South 438 504 32,000  Level Indianapolis Center
Fri 06:31:58 PM 36.2950 -83.7008 185° South 460 529 32,000  Level Indianapolis Center
Fri 06:33:00 PM 36.1661 -83.6708 169° South 469 540 32,000  Level Indianapolis Center
Fri 06:34:01 PM 36.0389 -83.6644 178° South 454 522 32,000  Level Indianapolis Center
Fri 06:35:03 PM 35.9028 -83.6614 179° South 454 522 32,000  Level Indianapolis Center
Fri 06:36:05 PM 35.7775 -83.6661 182° South 450 518 32,000  Level Indianapolis Center
Fri 06:37:07 PM 35.6528 -83.6728 182° South 449 517 32,000  Level Indianapolis Center
Fri 06:38:09 PM 35.5092 -83.6817 183° South 456 525 32,000  Level Atlanta Center
Fri 06:39:09 PM 35.3861 -83.6897 183° South 456 525 32,000  Level Atlanta Center
Fri 06:40:09 PM 35.2631 -83.6978 183° South 450 518 32,000  Level Atlanta Center
Fri 06:41:09 PM 35.1442 -83.7036 182° South 439 505 32,000  Level Atlanta Center
Fri 06:42:09 PM 35.0189 -83.7092 182° South 444 511 32,000  Level Atlanta Center
Fri 06:43:09 PM 34.9125 -83.7197 185° South 444 511 32,000  Level Atlanta Center
Fri 06:44:09 PM 34.7789 -83.7303 184° South 444 511 32,000  Level Atlanta Center
Fri 06:45:09 PM 34.6539 -83.7433 185° South 444 511 32,000  Level Atlanta Center
Fri 06:46:09 PM 34.5328 -83.7564 185° South 444 511 32,000  Level Atlanta Center
Fri 06:47:09 PM 34.4075 -83.7719 186° South 449 517 32,000  Level Atlanta Center
Fri 06:48:09 PM 34.2825 -83.7900 187° South 456 525 32,000  Level Atlanta Center
Fri 06:49:09 PM 34.1550 -83.7878 179° South 462 532 32,000  Level Atlanta Center
Fri 06:50:09 PM 34.0275 -83.7331 160° South 468 539 32,000  Level Atlanta Center
Fri 06:51:09 PM 33.9064 -83.6633 154° Southeast 474 545 32,000  Level Atlanta Center
Fri 06:52:09 PM 33.7978 -83.6064 156° South 484 557 32,000  Level Atlanta Center
Fri 06:53:09 PM 33.6742 -83.5444 157° South 479 551 32,000  Level Atlanta Center
Fri 06:54:09 PM 33.5508 -83.4906 160° South 474 545 32,000  Level Atlanta Center
Fri 06:55:09 PM 33.4233 -83.4317 159° South 474 545 32,000  Level Atlanta Center
Fri 06:56:09 PM 33.2978 -83.3653 156° South 485 558 32,000  Level Atlanta Center
Fri 06:57:09 PM 33.1636 -83.2944 156° South 485 558 32,000  Level Atlanta Center
Fri 06:58:09 PM 33.0422 -83.2383 159° South 477 549 32,000  Level Atlanta Center
Fri 06:59:09 PM 32.9292 -83.1850 158° South 477 549 32,000  Level Atlanta Center
Fri 07:00:09 PM 32.8097 -83.1294 159° South 471 542 32,000  Level Atlanta Center
Fri 07:01:09 PM 32.6944 -83.0664 155° Southeast 471 542 32,000  Level Atlanta Center
Fri 07:02:09 PM 32.5708 -83.0061 158° South 471 542 32,000  Level Atlanta Center
Fri 07:03:09 PM 32.4494 -82.9461 157° South 471 542 32,000  Level Atlanta Center
Fri 07:04:09 PM 32.3256 -82.8886 159° South 477 549 32,000  Level Atlanta Center
Fri 07:06:16 PM 32.0600 -82.7578 157° South 474 545 32,000  Level Jacksonville Center
Fri 07:07:16 PM 31.9389 -82.6992 158° South 474 545 32,000  Level Jacksonville Center
Fri 07:08:16 PM 31.8133 -82.6408 158° South 474 545 32,000 -300 Level Jacksonville Center
Fri 07:09:16 PM 31.6858 -82.5800 158° South 479 551 31,400 -800 Descending Jacksonville Center
Fri 07:10:16 PM 31.5689 -82.5219 157° South 474 545 30,400 -700 Descending Jacksonville Center
Fri 07:11:16 PM 31.4558 -82.4444 150° Southeast 467 537 30,000 -200 Descending Jacksonville Center
Fri 07:12:16 PM 31.3553 -82.3572 143° Southeast 467 537 30,000  Level Jacksonville Center
Fri 07:13:16 PM 31.2483 -82.2656 144° Southeast 462 532 30,000  Level Jacksonville Center
Fri 07:14:16 PM 31.1436 -82.1789 145° Southeast 467 537 30,000 -300 Level Jacksonville Center
Fri 07:15:16 PM 31.0344 -82.0950 147° Southeast 472 543 29,400 -650 Descending Jacksonville Center
Fri 07:16:16 PM 30.9294 -82.0036 143° Southeast 472 543 28,700 -1,350 Descending Jacksonville Center
Fri 07:17:16 PM 30.8244 -81.9128 143° Southeast 472 543 26,700 -2,250 Descending Jacksonville Center
Fri 07:18:16 PM 30.7192 -81.8244 144° Southeast 477 549 24,200 -1,350 Descending Jacksonville Center
Fri 07:19:16 PM 30.6225 -81.7436 144° Southeast 458 527 24,000 -150 Descending Jacksonville Center
Fri 07:20:16 PM 30.5425 -81.6794 145° Southeast 442 509 23,900 -50 Descending Jacksonville Center
Fri 07:21:16 PM 30.4394 -81.5914 144° Southeast 430 495 23,900  Level Jacksonville Center
Fri 07:22:16 PM 30.3425 -81.5183 147° Southeast 430 495 23,900 -50 Level Jacksonville Center
Fri 07:23:16 PM 30.2336 -81.4692 159° South 418 481 23,800 -500 Descending Jacksonville Center
Fri 07:24:16 PM 30.1225 -81.4300 163° South 418 481 22,900 -1,100 Descending Jacksonville Center
Fri 07:25:16 PM 30.0156 -81.3886 161° South 418 481 21,600 -1,900 Descending Jacksonville Center
Fri 07:26:16 PM 29.9042 -81.3447 161° South 418 481 19,100 -2,350 Descending Jacksonville Center
Fri 07:27:16 PM 29.8014 -81.3033 161° South 412 474 16,900 -1,600 Descending Jacksonville Center
Fri 07:28:16 PM 29.7008 -81.2667 162° South 401 461 15,900 -1,150 Descending Jacksonville Center
Fri 07:29:16 PM 29.6022 -81.2325 163° South 382 440 14,600 -1,600 Descending Jacksonville Center
Fri 07:30:16 PM 29.5078 -81.1983 163° South 370 426 12,700 -1,900 Descending Jacksonville Center
Fri 07:31:16 PM 29.4092 -81.1547 159° South 351 404 10,800 -1,350 Descending Jacksonville Center
Fri 07:32:16 PM 29.3214 -81.1467 175° South 318 366 10,000 -1,150 Descending Jacksonville Center
Fri 07:33:16 PM 29.2442 -81.1553 186° South 288 331 8,500 -1,450 Descending Jacksonville Center
Fri 07:34:16 PM 29.1672 -81.1636 185° South 287 330 7,100 -1,500 Descending Jacksonville Center
Fri 07:35:16 PM 29.0919 -81.1675 183° South 281 323 5,500 -1,100 Descending Jacksonville Center
Fri 07:36:16 PM 29.0211 -81.1733 184° South 264 304 4,900 -300 Descending Jacksonville Center
Fri 07:37:16 PM 28.9506 -81.1911 192° South 258 297 4,900 -350 Level Jacksonville Center
Fri 07:38:16 PM 28.8878 -81.1806 172° South 237 273 4,200 -1,000 Descending Jacksonville Center
Fri 07:39:10 PM 28.8500 -81.1500 145° Southeast 180 207 3,000 -1,368 Descending Orlando TRACON
Fri 07:40:10 PM 28.8000 -81.1500 180° South 161 185 1,600 -871 Descending Orlando TRACON
Fri 07:42:16 PM 28.7589 -81.2231 237° Southwest 123 142 300 4,645 Descending Jacksonville Center
Fri 07:43:16 PM 28.7319 -81.2469 218° Southwest 123 142 16,000 15,700 Climbing Jacksonville Center
Fri 07:45:00 PM 28.7667 -81.2333 199° South  Level FlightAware Approximate
Fri 07:52:00 PM 28.7767 -81.2355 199° South  Level Estimated

Login

Don't have an account? Register now (free) for customized features, flight alerts, and more!